sensor_id;sensor_type;location;lat;lon;timestamp;temperature;humidity
54846;DHT22;53889;50.084;8.646;2022-08-16T00:04:49;20.90;99.90
54846;DHT22;53889;50.084;8.646;2022-08-16T00:09:43;20.70;99.90
54846;DHT22;53889;50.084;8.646;2022-08-16T00:12:11;20.70;99.90
54846;DHT22;53889;50.084;8.646;2022-08-16T00:14:38;21.70;99.90
54846;DHT22;53889;50.084;8.646;2022-08-16T00:17:04;20.70;99.90
54846;DHT22;53889;50.084;8.646;2022-08-16T00:19:33;20.70;99.90
54846;DHT22;53889;50.084;8.646;2022-08-16T00:22:01;20.60;99.90
54846;DHT22;53889;50.084;8.646;2022-08-16T00:24:28;20.60;99.90
54846;DHT22;53889;50.084;8.646;2022-08-16T00:26:56;20.50;99.90
54846;DHT22;53889;50.084;8.646;2022-08-16T00:29:24;20.50;99.90
54846;DHT22;53889;50.084;8.646;2022-08-16T00:31:51;20.50;99.90
54846;DHT22;53889;50.084;8.646;2022-08-16T00:34:19;20.50;99.90
54846;DHT22;53889;50.084;8.646;2022-08-16T00:39:15;20.50;99.90
54846;DHT22;53889;50.084;8.646;2022-08-16T00:41:43;20.60;99.90
54846;DHT22;53889;50.084;8.646;2022-08-16T00:44:11;20.30;99.90
54846;DHT22;53889;50.084;8.646;2022-08-16T00:46:47;20.50;99.90
54846;DHT22;53889;50.084;8.646;2022-08-16T00:49:16;20.40;99.90
54846;DHT22;53889;50.084;8.646;2022-08-16T00:51:43;20.30;99.90
54846;DHT22;53889;50.084;8.646;2022-08-16T00:54:10;20.30;99.90
54846;DHT22;53889;50.084;8.646;2022-08-16T00:56:42;20.20;99.90
54846;DHT22;53889;50.084;8.646;2022-08-16T00:59:10;20.30;99.90
54846;DHT22;53889;50.084;8.646;2022-08-16T01:01:38;20.30;99.90
54846;DHT22;53889;50.084;8.646;2022-08-16T01:04:08;20.20;99.90
54846;DHT22;53889;50.084;8.646;2022-08-16T01:06:35;20.20;99.90
54846;DHT22;53889;50.084;8.646;2022-08-16T01:09:04;20.20;99.90
54846;DHT22;53889;50.084;8.646;2022-08-16T01:11:33;20.20;99.90
54846;DHT22;53889;50.084;8.646;2022-08-16T01:14:05;20.20;99.90
54846;DHT22;53889;50.084;8.646;2022-08-16T01:16:33;20.30;99.90
54846;DHT22;53889;50.084;8.646;2022-08-16T01:19:06;21.90;99.90
54846;DHT22;53889;50.084;8.646;2022-08-16T01:21:40;20.30;99.90
54846;DHT22;53889;50.084;8.646;2022-08-16T01:24:30;20.20;99.90
54846;DHT22;53889;50.084;8.646;2022-08-16T01:27:01;20.40;99.90
54846;DHT22;53889;50.084;8.646;2022-08-16T01:29:39;20.10;99.90
54846;DHT22;53889;50.084;8.646;2022-08-16T01:32:07;23.50;99.90
54846;DHT22;53889;50.084;8.646;2022-08-16T01:34:34;20.10;99.90
54846;DHT22;53889;50.084;8.646;2022-08-16T01:37:05;20.20;99.90
54846;DHT22;53889;50.084;8.646;2022-08-16T01:39:34;20.10;99.90
54846;DHT22;53889;50.084;8.646;2022-08-16T01:42:05;20.20;99.90
54846;DHT22;53889;50.084;8.646;2022-08-16T01:44:33;20.10;99.90
54846;DHT22;53889;50.084;8.646;2022-08-16T01:47:00;20.10;99.90
54846;DHT22;53889;50.084;8.646;2022-08-16T01:49:33;20.00;99.90
54846;DHT22;53889;50.084;8.646;2022-08-16T01:52:05;20.00;99.90
54846;DHT22;53889;50.084;8.646;2022-08-16T01:54:57;19.90;99.90
54846;DHT22;53889;50.084;8.646;2022-08-16T01:57:24;19.80;99.90
54846;DHT22;53889;50.084;8.646;2022-08-16T01:59:51;19.80;99.90
54846;DHT22;53889;50.084;8.646;2022-08-16T02:02:17;19.80;99.90
54846;DHT22;53889;50.084;8.646;2022-08-16T02:04:44;19.70;99.90
54846;DHT22;53889;50.084;8.646;2022-08-16T02:07:13;19.70;99.90
54846;DHT22;53889;50.084;8.646;2022-08-16T02:09:43;19.80;99.90
54846;DHT22;53889;50.084;8.646;2022-08-16T02:12:12;19.70;99.90
54846;DHT22;53889;50.084;8.646;2022-08-16T02:14:41;19.70;99.90
54846;DHT22;53889;50.084;8.646;2022-08-16T02:17:10;19.70;99.90
54846;DHT22;53889;50.084;8.646;2022-08-16T02:19:40;19.70;99.90
54846;DHT22;53889;50.084;8.646;2022-08-16T02:22:12;19.60;99.90
54846;DHT22;53889;50.084;8.646;2022-08-16T02:24:41;19.60;99.90
54846;DHT22;53889;50.084;8.646;2022-08-16T02:27:08;19.50;99.90
54846;DHT22;53889;50.084;8.646;2022-08-16T02:29:37;19.40;99.90
54846;DHT22;53889;50.084;8.646;2022-08-16T02:32:04;19.40;99.90
54846;DHT22;53889;50.084;8.646;2022-08-16T02:34:31;19.40;99.90
54846;DHT22;53889;50.084;8.646;2022-08-16T02:36:58;19.40;99.90
54846;DHT22;53889;50.084;8.646;2022-08-16T02:39:26;19.40;99.90
54846;DHT22;53889;50.084;8.646;2022-08-16T02:41:53;19.30;99.90
54846;DHT22;53889;50.084;8.646;2022-08-16T02:44:22;19.30;99.90
54846;DHT22;53889;50.084;8.646;2022-08-16T02:46:51;19.30;99.90
54846;DHT22;53889;50.084;8.646;2022-08-16T02:49:18;19.40;99.90
54846;DHT22;53889;50.084;8.646;2022-08-16T02:51:45;19.40;99.90
54846;DHT22;53889;50.084;8.646;2022-08-16T02:54:12;19.20;99.90
54846;DHT22;53889;50.084;8.646;2022-08-16T02:56:40;19.20;99.90
54846;DHT22;53889;50.084;8.646;2022-08-16T02:59:07;19.20;99.90
54846;DHT22;53889;50.084;8.646;2022-08-16T03:04:12;19.10;99.90
54846;DHT22;53889;50.084;8.646;2022-08-16T03:06:38;19.10;99.90
54846;DHT22;53889;50.084;8.646;2022-08-16T03:09:12;19.10;99.90
54846;DHT22;53889;50.084;8.646;2022-08-16T03:11:41;19.00;99.90
54846;DHT22;53889;50.084;8.646;2022-08-16T03:14:08;19.00;99.90
54846;DHT22;53889;50.084;8.646;2022-08-16T03:16:35;18.90;99.90
54846;DHT22;53889;50.084;8.646;2022-08-16T03:19:03;18.90;99.90
54846;DHT22;53889;50.084;8.646;2022-08-16T03:21:31;18.90;99.90
54846;DHT22;53889;50.084;8.646;2022-08-16T03:24:00;18.90;99.90
54846;DHT22;53889;50.084;8.646;2022-08-16T03:26:28;18.80;99.90
54846;DHT22;53889;50.084;8.646;2022-08-16T03:28:54;18.80;99.90
54846;DHT22;53889;50.084;8.646;2022-08-16T03:31:22;18.80;99.90
54846;DHT22;53889;50.084;8.646;2022-08-16T03:33:50;18.80;99.90
54846;DHT22;53889;50.084;8.646;2022-08-16T03:36:17;18.90;99.90
54846;DHT22;53889;50.084;8.646;2022-08-16T03:38:48;18.80;99.90
54846;DHT22;53889;50.084;8.646;2022-08-16T03:41:15;18.80;99.90
54846;DHT22;53889;50.084;8.646;2022-08-16T03:43:41;18.70;99.90
54846;DHT22;53889;50.084;8.646;2022-08-16T03:46:12;18.70;99.90
54846;DHT22;53889;50.084;8.646;2022-08-16T03:48:41;18.70;99.90
54846;DHT22;53889;50.084;8.646;2022-08-16T03:51:14;18.70;99.90
54846;DHT22;53889;50.084;8.646;2022-08-16T03:53:48;18.70;99.90
54846;DHT22;53889;50.084;8.646;2022-08-16T03:56:16;18.70;99.90
54846;DHT22;53889;50.084;8.646;2022-08-16T03:58:43;18.70;99.90
54846;DHT22;53889;50.084;8.646;2022-08-16T04:01:09;18.60;99.90
54846;DHT22;53889;50.084;8.646;2022-08-16T04:03:36;18.60;99.90
54846;DHT22;53889;50.084;8.646;2022-08-16T04:06:03;18.50;99.90
54846;DHT22;53889;50.084;8.646;2022-08-16T04:08:32;18.50;99.90
54846;DHT22;53889;50.084;8.646;2022-08-16T04:11:01;18.50;99.90
54846;DHT22;53889;50.084;8.646;2022-08-16T04:13:28;18.60;99.90
54846;DHT22;53889;50.084;8.646;2022-08-16T04:15:55;18.60;99.90
54846;DHT22;53889;50.084;8.646;2022-08-16T04:18:24;18.50;99.90
54846;DHT22;53889;50.084;8.646;2022-08-16T04:20:53;18.50;99.90
54846;DHT22;53889;50.084;8.646;2022-08-16T04:23:24;18.50;99.90
54846;DHT22;53889;50.084;8.646;2022-08-16T04:25:51;18.50;99.90
54846;DHT22;53889;50.084;8.646;2022-08-16T04:28:20;18.40;99.90
54846;DHT22;53889;50.084;8.646;2022-08-16T04:30:47;18.40;99.90
54846;DHT22;53889;50.084;8.646;2022-08-16T04:33:13;18.50;99.90
54846;DHT22;53889;50.084;8.646;2022-08-16T04:35:41;18.50;99.90
54846;DHT22;53889;50.084;8.646;2022-08-16T04:38:08;18.60;99.90
54846;DHT22;53889;50.084;8.646;2022-08-16T04:40:40;18.60;99.90
54846;DHT22;53889;50.084;8.646;2022-08-16T04:43:07;18.50;99.90
54846;DHT22;53889;50.084;8.646;2022-08-16T04:45:35;18.50;99.90
54846;DHT22;53889;50.084;8.646;2022-08-16T04:48:10;18.60;99.90
54846;DHT22;53889;50.084;8.646;2022-08-16T04:50:46;18.60;99.90
54846;DHT22;53889;50.084;8.646;2022-08-16T04:53:16;18.50;99.90
54846;DHT22;53889;50.084;8.646;2022-08-16T04:55:44;18.70;99.90
54846;DHT22;53889;50.084;8.646;2022-08-16T04:58:12;18.70;99.90
54846;DHT22;53889;50.084;8.646;2022-08-16T05:00:40;18.80;99.90
54846;DHT22;53889;50.084;8.646;2022-08-16T05:03:11;18.70;99.90
54846;DHT22;53889;50.084;8.646;2022-08-16T05:05:45;18.70;99.90
54846;DHT22;53889;50.084;8.646;2022-08-16T05:08:14;18.60;99.90
54846;DHT22;53889;50.084;8.646;2022-08-16T05:10:44;18.70;99.90
54846;DHT22;53889;50.084;8.646;2022-08-16T05:13:11;18.90;99.90
54846;DHT22;53889;50.084;8.646;2022-08-16T05:15:39;19.30;99.90
54846;DHT22;53889;50.084;8.646;2022-08-16T05:18:06;19.70;99.90
54846;DHT22;53889;50.084;8.646;2022-08-16T05:20:41;20.30;99.90
54846;DHT22;53889;50.084;8.646;2022-08-16T05:23:10;20.80;99.90
54846;DHT22;53889;50.084;8.646;2022-08-16T05:25:36;21.10;99.90
54846;DHT22;53889;50.084;8.646;2022-08-16T05:28:04;21.20;99.90
54846;DHT22;53889;50.084;8.646;2022-08-16T05:30:35;21.30;99.90
54846;DHT22;53889;50.084;8.646;2022-08-16T05:33:07;21.50;99.90
54846;DHT22;53889;50.084;8.646;2022-08-16T05:35:34;21.20;99.90
54846;DHT22;53889;50.084;8.646;2022-08-16T05:38:07;21.10;99.90
54846;DHT22;53889;50.084;8.646;2022-08-16T05:40:35;21.20;99.90
54846;DHT22;53889;50.084;8.646;2022-08-16T05:43:02;21.50;99.90
54846;DHT22;53889;50.084;8.646;2022-08-16T05:45:30;21.90;99.90
54846;DHT22;53889;50.084;8.646;2022-08-16T05:48:00;22.00;99.90
54846;DHT22;53889;50.084;8.646;2022-08-16T05:50:41;22.40;99.90
54846;DHT22;53889;50.084;8.646;2022-08-16T05:53:08;22.50;99.90
54846;DHT22;53889;50.084;8.646;2022-08-16T05:55:40;22.70;99.90
54846;DHT22;53889;50.084;8.646;2022-08-16T05:58:07;22.90;99.90
54846;DHT22;53889;50.084;8.646;2022-08-16T06:00:34;22.80;99.90
54846;DHT22;53889;50.084;8.646;2022-08-16T06:03:00;23.20;99.90
54846;DHT22;53889;50.084;8.646;2022-08-16T06:05:55;22.40;99.80
54846;DHT22;53889;50.084;8.646;2022-08-16T06:08:23;23.60;99.80
54846;DHT22;53889;50.084;8.646;2022-08-16T06:10:50;23.80;99.40
54846;DHT22;53889;50.084;8.646;2022-08-16T06:13:16;23.90;99.10
54846;DHT22;53889;50.084;8.646;2022-08-16T06:15:44;24.20;98.50
54846;DHT22;53889;50.084;8.646;2022-08-16T06:18:11;24.20;98.20
54846;DHT22;53889;50.084;8.646;2022-08-16T06:20:38;24.40;98.60
54846;DHT22;53889;50.084;8.646;2022-08-16T06:23:17;24.60;97.60
54846;DHT22;53889;50.084;8.646;2022-08-16T06:25:54;25.10;96.90
54846;DHT22;53889;50.084;8.646;2022-08-16T06:28:24;25.30;96.00
54846;DHT22;53889;50.084;8.646;2022-08-16T06:30:50;25.20;96.00
54846;DHT22;53889;50.084;8.646;2022-08-16T06:33:17;25.20;95.50
54846;DHT22;53889;50.084;8.646;2022-08-16T06:35:44;25.30;95.80
54846;DHT22;53889;50.084;8.646;2022-08-16T06:38:12;25.70;95.00
54846;DHT22;53889;50.084;8.646;2022-08-16T06:40:40;25.80;94.70
54846;DHT22;53889;50.084;8.646;2022-08-16T06:43:08;26.10;94.20
54846;DHT22;53889;50.084;8.646;2022-08-16T06:45:45;26.10;94.00
54846;DHT22;53889;50.084;8.646;2022-08-16T06:48:18;26.00;93.70
54846;DHT22;53889;50.084;8.646;2022-08-16T06:50:45;25.40;94.40
54846;DHT22;53889;50.084;8.646;2022-08-16T06:53:14;25.00;95.10
54846;DHT22;53889;50.084;8.646;2022-08-16T06:55:54;25.20;95.00
54846;DHT22;53889;50.084;8.646;2022-08-16T06:58:22;25.50;94.70
54846;DHT22;53889;50.084;8.646;2022-08-16T07:00:59;26.00;94.20
54846;DHT22;53889;50.084;8.646;2022-08-16T07:03:29;26.10;93.70
54846;DHT22;53889;50.084;8.646;2022-08-16T07:05:57;26.10;93.40
54846;DHT22;53889;50.084;8.646;2022-08-16T07:08:29;25.60;94.10
54846;DHT22;53889;50.084;8.646;2022-08-16T07:10:57;25.60;94.30
54846;DHT22;53889;50.084;8.646;2022-08-16T07:13:26;26.10;93.80
54846;DHT22;53889;50.084;8.646;2022-08-16T07:15:55;26.60;92.90
54846;DHT22;53889;50.084;8.646;2022-08-16T07:18:25;27.00;92.10
54846;DHT22;53889;50.084;8.646;2022-08-16T07:20:52;27.20;91.60
54846;DHT22;53889;50.084;8.646;2022-08-16T07:23:19;26.80;91.40
54846;DHT22;53889;50.084;8.646;2022-08-16T07:25:54;26.80;91.60
54846;DHT22;53889;50.084;8.646;2022-08-16T07:28:24;26.90;91.40
54846;DHT22;53889;50.084;8.646;2022-08-16T07:30:53;26.60;91.70
54846;DHT22;53889;50.084;8.646;2022-08-16T07:33:29;26.80;91.50
54846;DHT22;53889;50.084;8.646;2022-08-16T07:35:57;27.50;90.50
54846;DHT22;53889;50.084;8.646;2022-08-16T07:38:24;27.70;89.70
54846;DHT22;53889;50.084;8.646;2022-08-16T07:40:55;27.50;90.20
54846;DHT22;53889;50.084;8.646;2022-08-16T07:43:24;27.80;89.40
54846;DHT22;53889;50.084;8.646;2022-08-16T07:45:51;28.10;88.10
54846;DHT22;53889;50.084;8.646;2022-08-16T07:48:19;27.40;89.00
54846;DHT22;53889;50.084;8.646;2022-08-16T07:50:51;27.40;89.40
54846;DHT22;53889;50.084;8.646;2022-08-16T07:53:18;28.10;88.00
54846;DHT22;53889;50.084;8.646;2022-08-16T07:55:45;28.40;86.10
54846;DHT22;53889;50.084;8.646;2022-08-16T07:58:14;28.60;85.30
54846;DHT22;53889;50.084;8.646;2022-08-16T08:00:43;28.80;83.90
54846;DHT22;53889;50.084;8.646;2022-08-16T08:03:10;28.70;84.60
54846;DHT22;53889;50.084;8.646;2022-08-16T08:05:38;29.10;82.50
54846;DHT22;53889;50.084;8.646;2022-08-16T08:08:06;29.70;81.00
54846;DHT22;53889;50.084;8.646;2022-08-16T08:10:33;29.40;80.30
54846;DHT22;53889;50.084;8.646;2022-08-16T08:13:00;29.10;80.50
54846;DHT22;53889;50.084;8.646;2022-08-16T08:15:27;29.10;81.30
54846;DHT22;53889;50.084;8.646;2022-08-16T08:17:55;29.30;80.30
54846;DHT22;53889;50.084;8.646;2022-08-16T08:20:28;29.00;80.10
54846;DHT22;53889;50.084;8.646;2022-08-16T08:22:58;29.30;80.00
54846;DHT22;53889;50.084;8.646;2022-08-16T08:25:27;29.80;78.30
54846;DHT22;53889;50.084;8.646;2022-08-16T08:27:54;29.40;78.90
54846;DHT22;53889;50.084;8.646;2022-08-16T08:30:21;29.70;77.40
54846;DHT22;53889;50.084;8.646;2022-08-16T08:32:50;29.30;78.10
54846;DHT22;53889;50.084;8.646;2022-08-16T08:35:19;29.00;78.40
54846;DHT22;53889;50.084;8.646;2022-08-16T08:37:46;28.90;79.40
54846;DHT22;53889;50.084;8.646;2022-08-16T08:40:15;29.10;79.20
54846;DHT22;53889;50.084;8.646;2022-08-16T08:42:42;29.50;77.80
54846;DHT22;53889;50.084;8.646;2022-08-16T08:45:11;29.70;76.60
54846;DHT22;53889;50.084;8.646;2022-08-16T08:47:41;28.90;78.10
54846;DHT22;53889;50.084;8.646;2022-08-16T08:50:11;29.10;77.80
54846;DHT22;53889;50.084;8.646;2022-08-16T08:52:40;29.80;75.80
54846;DHT22;53889;50.084;8.646;2022-08-16T08:55:10;29.30;76.20
54846;DHT22;53889;50.084;8.646;2022-08-16T08:57:39;29.50;76.40
54846;DHT22;53889;50.084;8.646;2022-08-16T09:00:22;29.60;75.40
54846;DHT22;53889;50.084;8.646;2022-08-16T09:02:53;29.30;75.70
54846;DHT22;53889;50.084;8.646;2022-08-16T09:05:21;29.60;75.40
54846;DHT22;53889;50.084;8.646;2022-08-16T09:07:53;30.10;73.30
54846;DHT22;53889;50.084;8.646;2022-08-16T09:10:24;29.60;74.20
54846;DHT22;53889;50.084;8.646;2022-08-16T09:12:51;28.80;76.50
54846;DHT22;53889;50.084;8.646;2022-08-16T09:15:21;29.10;75.70
54846;DHT22;53889;50.084;8.646;2022-08-16T09:17:48;29.70;74.40
54846;DHT22;53889;50.084;8.646;2022-08-16T09:20:20;30.30;72.60
54846;DHT22;53889;50.084;8.646;2022-08-16T09:22:47;29.70;72.90
54846;DHT22;53889;50.084;8.646;2022-08-16T09:25:16;28.70;74.50
54846;DHT22;53889;50.084;8.646;2022-08-16T09:27:43;28.50;76.00
54846;DHT22;53889;50.084;8.646;2022-08-16T09:30:11;28.90;74.80
54846;DHT22;53889;50.084;8.646;2022-08-16T09:32:37;28.30;76.00
54846;DHT22;53889;50.084;8.646;2022-08-16T09:35:05;27.60;77.90
54846;DHT22;53889;50.084;8.646;2022-08-16T09:37:33;26.80;79.60
54846;DHT22;53889;50.084;8.646;2022-08-16T09:40:00;26.70;80.40
54846;DHT22;53889;50.084;8.646;2022-08-16T09:42:29;26.40;81.50
54846;DHT22;53889;50.084;8.646;2022-08-16T09:44:56;26.50;81.20
54846;DHT22;53889;50.084;8.646;2022-08-16T09:47:24;27.10;80.20
54846;DHT22;53889;50.084;8.646;2022-08-16T09:49:52;27.40;78.70
54846;DHT22;53889;50.084;8.646;2022-08-16T09:52:19;28.00;77.30
54846;DHT22;53889;50.084;8.646;2022-08-16T09:54:45;27.90;76.70
54846;DHT22;53889;50.084;8.646;2022-08-16T09:57:12;27.70;77.50
54846;DHT22;53889;50.084;8.646;2022-08-16T09:59:40;27.70;78.00
54846;DHT22;53889;50.084;8.646;2022-08-16T10:02:08;28.00;77.50
54846;DHT22;53889;50.084;8.646;2022-08-16T10:04:34;28.20;76.10
54846;DHT22;53889;50.084;8.646;2022-08-16T10:07:03;28.10;76.00
54846;DHT22;53889;50.084;8.646;2022-08-16T10:09:30;28.30;76.70
54846;DHT22;53889;50.084;8.646;2022-08-16T10:11:57;29.30;74.40
54846;DHT22;53889;50.084;8.646;2022-08-16T10:14:42;29.80;72.10
54846;DHT22;53889;50.084;8.646;2022-08-16T10:17:10;30.00;71.50
54846;DHT22;53889;50.084;8.646;2022-08-16T10:19:37;31.00;69.90
54846;DHT22;53889;50.084;8.646;2022-08-16T10:22:03;31.50;67.10
54846;DHT22;53889;50.084;8.646;2022-08-16T10:24:31;31.80;67.30
54846;DHT22;53889;50.084;8.646;2022-08-16T10:26:58;33.00;63.80
54846;DHT22;53889;50.084;8.646;2022-08-16T10:29:24;32.10;63.50
54846;DHT22;53889;50.084;8.646;2022-08-16T10:31:52;30.80;66.00
54846;DHT22;53889;50.084;8.646;2022-08-16T10:34:19;30.60;66.60
54846;DHT22;53889;50.084;8.646;2022-08-16T10:36:46;30.50;67.00
54846;DHT22;53889;50.084;8.646;2022-08-16T10:39:12;30.20;67.60
54846;DHT22;53889;50.084;8.646;2022-08-16T10:41:39;29.60;67.60
54846;DHT22;53889;50.084;8.646;2022-08-16T10:44:06;29.90;67.00
54846;DHT22;53889;50.084;8.646;2022-08-16T10:46:33;30.40;65.20
54846;DHT22;53889;50.084;8.646;2022-08-16T10:49:02;30.70;63.60
54846;DHT22;53889;50.084;8.646;2022-08-16T10:51:29;31.00;63.10
54846;DHT22;53889;50.084;8.646;2022-08-16T10:53:56;31.20;64.30
54846;DHT22;53889;50.084;8.646;2022-08-16T10:56:24;31.80;63.60
54846;DHT22;53889;50.084;8.646;2022-08-16T10:58:51;31.70;63.30
54846;DHT22;53889;50.084;8.646;2022-08-16T11:01:19;31.90;62.90
54846;DHT22;53889;50.084;8.646;2022-08-16T11:03:45;31.60;63.00
54846;DHT22;53889;50.084;8.646;2022-08-16T11:06:13;31.90;62.60
54846;DHT22;53889;50.084;8.646;2022-08-16T11:08:40;32.10;61.70
54846;DHT22;53889;50.084;8.646;2022-08-16T11:11:08;32.30;61.30
54846;DHT22;53889;50.084;8.646;2022-08-16T11:13:36;32.20;61.60
54846;DHT22;53889;50.084;8.646;2022-08-16T11:16:04;31.70;62.80
54846;DHT22;53889;50.084;8.646;2022-08-16T11:18:31;30.40;62.60
54846;DHT22;53889;50.084;8.646;2022-08-16T11:20:58;31.50;63.50
54846;DHT22;53889;50.084;8.646;2022-08-16T11:23:26;32.10;62.80
54846;DHT22;53889;50.084;8.646;2022-08-16T11:25:54;31.50;61.90
54846;DHT22;53889;50.084;8.646;2022-08-16T11:28:21;31.80;61.80
54846;DHT22;53889;50.084;8.646;2022-08-16T11:30:48;32.10;61.00
54846;DHT22;53889;50.084;8.646;2022-08-16T11:33:15;32.50;60.00
54846;DHT22;53889;50.084;8.646;2022-08-16T11:35:42;33.40;58.80
54846;DHT22;53889;50.084;8.646;2022-08-16T11:38:12;33.60;58.30
54846;DHT22;53889;50.084;8.646;2022-08-16T11:40:43;33.20;58.70
54846;DHT22;53889;50.084;8.646;2022-08-16T11:43:14;32.90;58.80
54846;DHT22;53889;50.084;8.646;2022-08-16T11:45:40;32.90;59.30
54846;DHT22;53889;50.084;8.646;2022-08-16T11:48:07;32.90;58.80
54846;DHT22;53889;50.084;8.646;2022-08-16T11:50:34;33.30;58.00
54846;DHT22;53889;50.084;8.646;2022-08-16T11:53:03;32.70;58.20
54846;DHT22;53889;50.084;8.646;2022-08-16T11:55:30;32.30;58.80
54846;DHT22;53889;50.084;8.646;2022-08-16T11:57:59;31.70;59.90
54846;DHT22;53889;50.084;8.646;2022-08-16T12:00:27;31.50;60.50
54846;DHT22;53889;50.084;8.646;2022-08-16T12:02:54;32.20;59.90
54846;DHT22;53889;50.084;8.646;2022-08-16T12:05:21;33.50;57.90
54846;DHT22;53889;50.084;8.646;2022-08-16T12:07:48;34.50;56.10
54846;DHT22;53889;50.084;8.646;2022-08-16T12:10:17;34.70;55.30
54846;DHT22;53889;50.084;8.646;2022-08-16T12:12:45;34.20;55.80
54846;DHT22;53889;50.084;8.646;2022-08-16T12:15:14;33.70;55.80
54846;DHT22;53889;50.084;8.646;2022-08-16T12:17:41;33.00;56.40
54846;DHT22;53889;50.084;8.646;2022-08-16T12:20:12;32.80;56.70
54846;DHT22;53889;50.084;8.646;2022-08-16T12:22:39;31.60;58.20
54846;DHT22;53889;50.084;8.646;2022-08-16T12:25:08;31.40;59.30
54846;DHT22;53889;50.084;8.646;2022-08-16T12:27:36;31.70;58.30
54846;DHT22;53889;50.084;8.646;2022-08-16T12:30:05;31.30;58.20
54846;DHT22;53889;50.084;8.646;2022-08-16T12:32:33;31.00;59.10
54846;DHT22;53889;50.084;8.646;2022-08-16T12:35:00;31.50;58.70
54846;DHT22;53889;50.084;8.646;2022-08-16T12:37:27;32.00;57.70
54846;DHT22;53889;50.084;8.646;2022-08-16T12:39:55;31.80;57.30
54846;DHT22;53889;50.084;8.646;2022-08-16T12:42:22;32.00;57.10
54846;DHT22;53889;50.084;8.646;2022-08-16T12:44:49;31.70;57.70
54846;DHT22;53889;50.084;8.646;2022-08-16T12:47:17;31.90;57.00
54846;DHT22;53889;50.084;8.646;2022-08-16T12:50:04;31.30;57.20
54846;DHT22;53889;50.084;8.646;2022-08-16T12:52:31;31.10;57.10
54846;DHT22;53889;50.084;8.646;2022-08-16T12:54:59;30.90;57.70
54846;DHT22;53889;50.084;8.646;2022-08-16T12:57:25;30.50;58.50
54846;DHT22;53889;50.084;8.646;2022-08-16T12:59:52;29.90;58.40
54846;DHT22;53889;50.084;8.646;2022-08-16T13:02:19;30.30;58.40
54846;DHT22;53889;50.084;8.646;2022-08-16T13:04:46;30.20;58.70
54846;DHT22;53889;50.084;8.646;2022-08-16T13:07:14;30.30;58.80
54846;DHT22;53889;50.084;8.646;2022-08-16T13:09:42;29.80;59.10
54846;DHT22;53889;50.084;8.646;2022-08-16T13:12:17;29.90;59.40
54846;DHT22;53889;50.084;8.646;2022-08-16T13:14:49;30.10;58.70
54846;DHT22;53889;50.084;8.646;2022-08-16T13:17:18;30.30;58.30
54846;DHT22;53889;50.084;8.646;2022-08-16T13:19:49;30.50;57.80
54846;DHT22;53889;50.084;8.646;2022-08-16T13:22:18;30.00;58.40
54846;DHT22;53889;50.084;8.646;2022-08-16T13:24:44;30.30;58.10
54846;DHT22;53889;50.084;8.646;2022-08-16T13:27:11;30.40;57.60
54846;DHT22;53889;50.084;8.646;2022-08-16T13:29:38;30.40;56.70
54846;DHT22;53889;50.084;8.646;2022-08-16T13:32:05;30.40;56.90
54846;DHT22;53889;50.084;8.646;2022-08-16T13:34:32;30.40;57.10
54846;DHT22;53889;50.084;8.646;2022-08-16T13:36:59;30.60;57.10
54846;DHT22;53889;50.084;8.646;2022-08-16T13:39:27;30.90;56.50
54846;DHT22;53889;50.084;8.646;2022-08-16T13:41:56;30.90;56.00
54846;DHT22;53889;50.084;8.646;2022-08-16T13:44:22;30.60;55.40
54846;DHT22;53889;50.084;8.646;2022-08-16T13:46:49;30.60;55.80
54846;DHT22;53889;50.084;8.646;2022-08-16T13:49:16;30.70;55.50
54846;DHT22;53889;50.084;8.646;2022-08-16T13:51:42;30.50;56.20
54846;DHT22;53889;50.084;8.646;2022-08-16T13:54:09;30.40;56.40
54846;DHT22;53889;50.084;8.646;2022-08-16T13:56:37;30.00;57.90
54846;DHT22;53889;50.084;8.646;2022-08-16T13:59:04;30.20;57.70
54846;DHT22;53889;50.084;8.646;2022-08-16T14:01:31;30.40;56.70
54846;DHT22;53889;50.084;8.646;2022-08-16T14:03:58;30.20;56.40
54846;DHT22;53889;50.084;8.646;2022-08-16T14:06:26;30.20;56.90
54846;DHT22;53889;50.084;8.646;2022-08-16T14:08:52;30.50;56.90
54846;DHT22;53889;50.084;8.646;2022-08-16T14:11:19;30.10;57.50
54846;DHT22;53889;50.084;8.646;2022-08-16T14:13:47;30.10;57.80
54846;DHT22;53889;50.084;8.646;2022-08-16T14:16:14;30.40;57.60
54846;DHT22;53889;50.084;8.646;2022-08-16T14:18:41;30.50;57.20
54846;DHT22;53889;50.084;8.646;2022-08-16T14:21:08;30.40;56.40
54846;DHT22;53889;50.084;8.646;2022-08-16T14:23:34;30.40;56.70
54846;DHT22;53889;50.084;8.646;2022-08-16T14:26:01;30.00;57.20
54846;DHT22;53889;50.084;8.646;2022-08-16T14:28:28;30.00;56.90
54846;DHT22;53889;50.084;8.646;2022-08-16T14:30:56;30.10;56.90
54846;DHT22;53889;50.084;8.646;2022-08-16T14:33:24;30.10;56.60
54846;DHT22;53889;50.084;8.646;2022-08-16T14:35:51;30.10;56.20
54846;DHT22;53889;50.084;8.646;2022-08-16T14:38:18;30.20;56.00
54846;DHT22;53889;50.084;8.646;2022-08-16T14:40:46;30.30;56.00
54846;DHT22;53889;50.084;8.646;2022-08-16T14:43:13;30.50;55.80
54846;DHT22;53889;50.084;8.646;2022-08-16T14:45:40;30.60;55.30
54846;DHT22;53889;50.084;8.646;2022-08-16T14:48:08;30.70;54.80
54846;DHT22;53889;50.084;8.646;2022-08-16T14:50:35;30.70;54.30
54846;DHT22;53889;50.084;8.646;2022-08-16T14:53:07;30.70;53.90
54846;DHT22;53889;50.084;8.646;2022-08-16T14:55:36;30.60;54.20
54846;DHT22;53889;50.084;8.646;2022-08-16T14:58:03;30.80;54.50
54846;DHT22;53889;50.084;8.646;2022-08-16T15:00:32;30.80;54.20
54846;DHT22;53889;50.084;8.646;2022-08-16T15:03:02;30.90;54.20
54846;DHT22;53889;50.084;8.646;2022-08-16T15:05:31;30.90;54.10
54846;DHT22;53889;50.084;8.646;2022-08-16T15:07:58;30.80;54.20
54846;DHT22;53889;50.084;8.646;2022-08-16T15:10:24;30.50;54.70
54846;DHT22;53889;50.084;8.646;2022-08-16T15:12:52;30.40;54.80
54846;DHT22;53889;50.084;8.646;2022-08-16T15:15:22;30.50;54.80
54846;DHT22;53889;50.084;8.646;2022-08-16T15:17:49;30.50;54.80
54846;DHT22;53889;50.084;8.646;2022-08-16T15:20:16;30.50;54.60
54846;DHT22;53889;50.084;8.646;2022-08-16T15:22:46;30.50;54.70
54846;DHT22;53889;50.084;8.646;2022-08-16T15:25:15;30.70;54.60
54846;DHT22;53889;50.084;8.646;2022-08-16T15:27:43;30.80;54.10
54846;DHT22;53889;50.084;8.646;2022-08-16T15:30:14;30.70;53.90
54846;DHT22;53889;50.084;8.646;2022-08-16T15:32:42;30.70;54.50
54846;DHT22;53889;50.084;8.646;2022-08-16T15:35:10;30.50;53.60
54846;DHT22;53889;50.084;8.646;2022-08-16T15:37:37;30.40;53.50
54846;DHT22;53889;50.084;8.646;2022-08-16T15:40:09;30.40;53.20
54846;DHT22;53889;50.084;8.646;2022-08-16T15:42:37;30.30;53.20
54846;DHT22;53889;50.084;8.646;2022-08-16T15:45:06;30.10;53.30
54846;DHT22;53889;50.084;8.646;2022-08-16T15:47:33;30.10;53.40
54846;DHT22;53889;50.084;8.646;2022-08-16T15:50:01;30.10;53.40